createdAt,value
2018-07-25T00:00:59.348Z,58.42
2018-07-25T00:03:28.076Z,57.95
2018-07-25T00:05:56.944Z,59.00
2018-07-25T00:08:26.435Z,58.84
2018-07-25T00:10:55.952Z,58.38
2018-07-25T00:13:26.175Z,58.88
2018-07-25T00:15:55.488Z,58.92
2018-07-25T00:18:24.150Z,59.64
2018-07-25T00:20:53.981Z,59.49
2018-07-25T00:23:22.859Z,58.62
2018-07-25T00:25:51.978Z,59.89
2018-07-25T00:28:20.827Z,60.09
2018-07-25T00:30:49.874Z,60.22
2018-07-25T00:33:18.648Z,60.63
2018-07-25T00:35:47.387Z,60.49
2018-07-25T00:38:15.993Z,60.14
2018-07-25T00:40:44.666Z,60.11
2018-07-25T00:43:13.344Z,60.02
2018-07-25T00:45:42.168Z,59.88
2018-07-25T00:48:10.865Z,59.95
2018-07-25T00:50:39.465Z,61.30
2018-07-25T00:53:08.318Z,61.03
2018-07-25T00:55:37.043Z,61.29
2018-07-25T00:58:05.710Z,61.80
2018-07-25T01:00:34.510Z,61.31
2018-07-25T01:03:03.053Z,62.29
2018-07-25T01:05:33.315Z,62.28
2018-07-25T01:08:02.915Z,62.32
2018-07-25T01:10:31.701Z,61.50
2018-07-25T01:13:00.364Z,62.29
2018-07-25T01:15:29.463Z,62.15
2018-07-25T01:17:58.253Z,62.41
2018-07-25T01:20:26.895Z,62.00
2018-07-25T01:22:56.120Z,62.86
2018-07-25T01:25:24.900Z,62.93
2018-07-25T01:27:53.579Z,63.36
2018-07-25T01:30:23.143Z,63.45
2018-07-25T01:32:51.819Z,63.12
2018-07-25T01:35:21.302Z,63.00
2018-07-25T01:37:50.106Z,63.78
2018-07-25T01:40:18.738Z,63.27
2018-07-25T01:42:47.544Z,64.02
2018-07-25T01:45:16.436Z,63.37
2018-07-25T01:47:45.172Z,63.59
2018-07-25T01:50:13.802Z,64.11
2018-07-25T01:52:42.563Z,63.93
2018-07-25T01:55:13.029Z,64.25
2018-07-25T01:57:41.809Z,64.07
2018-07-25T02:00:10.543Z,64.93
2018-07-25T02:02:39.193Z,65.55
2018-07-25T02:05:08.096Z,65.37
2018-07-25T02:07:41.703Z,65.16
2018-07-25T02:10:10.912Z,64.76
2018-07-25T02:12:39.567Z,64.46
2018-07-25T02:15:08.651Z,65.19
2018-07-25T02:17:38.588Z,64.55
2018-07-25T02:20:07.248Z,64.36
2018-07-25T02:22:35.925Z,65.06
2018-07-25T02:25:04.851Z,65.18
2018-07-25T02:27:33.490Z,64.52
2018-07-25T02:30:02.105Z,65.31
2018-07-25T02:32:31.087Z,65.25
2018-07-25T02:34:59.881Z,65.57
2018-07-25T02:37:28.706Z,65.24
2018-07-25T02:39:57.579Z,65.45
2018-07-25T02:42:27.538Z,64.84
2018-07-25T02:44:56.300Z,65.24
2018-07-25T02:47:25.384Z,65.23
2018-07-25T02:49:54.015Z,65.28
2018-07-25T02:52:22.681Z,64.89
2018-07-25T02:54:51.548Z,64.59
2018-07-25T02:57:20.158Z,64.69
2018-07-25T02:59:48.767Z,65.40
2018-07-25T03:02:18.021Z,65.19
2018-07-25T03:04:46.635Z,65.07
2018-07-25T03:07:15.223Z,65.28
2018-07-25T03:09:44.574Z,65.38
2018-07-25T03:12:13.691Z,65.51
2018-07-25T03:14:42.264Z,64.88
2018-07-25T03:17:11.016Z,65.21
2018-07-25T03:19:39.686Z,65.26
2018-07-25T03:22:08.235Z,65.41
2018-07-25T03:24:37.308Z,65.31
2018-07-25T03:27:05.959Z,66.25
2018-07-25T03:29:34.528Z,65.53
2018-07-25T03:32:04.115Z,65.46
2018-07-25T03:34:32.812Z,64.97
2018-07-25T03:37:01.569Z,66.01
2018-07-25T03:39:30.851Z,66.73
2018-07-25T03:42:03.519Z,65.82
2018-07-25T03:44:32.228Z,66.04
2018-07-25T03:47:01.228Z,66.23
2018-07-25T03:49:29.896Z,65.96
2018-07-25T03:51:59.139Z,65.59
2018-07-25T03:54:28.767Z,65.55
2018-07-25T03:56:57.342Z,64.65
2018-07-25T03:59:26.201Z,65.13
2018-07-25T04:01:55.910Z,64.56
2018-07-25T04:04:24.690Z,65.10
2018-07-25T04:06:53.387Z,64.49
2018-07-25T04:09:22.099Z,64.51
2018-07-25T04:11:51.144Z,64.04
2018-07-25T04:14:19.806Z,63.78
2018-07-25T04:16:48.564Z,64.05
2018-07-25T04:19:18.324Z,63.79
2018-07-25T04:21:47.175Z,64.69
2018-07-25T04:24:16.068Z,64.64
2018-07-25T04:26:44.707Z,64.55
2018-07-25T04:29:14.195Z,64.25
2018-07-25T04:31:42.908Z,65.31
2018-07-25T04:34:11.772Z,66.40
2018-07-25T04:36:40.509Z,66.99
2018-07-25T04:39:11.616Z,66.82
2018-07-25T04:41:40.903Z,66.01
2018-07-25T04:44:10.492Z,66.29
2018-07-25T04:46:39.270Z,66.22
2018-07-25T04:49:07.979Z,66.10
2018-07-25T04:51:37.140Z,65.54
2018-07-25T04:54:05.748Z,64.54
2018-07-25T04:56:34.837Z,64.69
2018-07-25T04:59:03.611Z,64.42
2018-07-25T05:01:32.596Z,63.81
2018-07-25T05:04:01.456Z,64.12
2018-07-25T05:06:30.110Z,63.31
2018-07-25T05:08:58.887Z,64.03
2018-07-25T05:11:27.823Z,62.97
2018-07-25T05:13:56.433Z,63.61
2018-07-25T05:16:25.439Z,62.17
2018-07-25T05:18:54.045Z,62.15
2018-07-25T05:21:22.604Z,61.87
2018-07-25T05:23:51.383Z,62.47
2018-07-25T05:26:20.211Z,61.71
2018-07-25T05:28:48.872Z,62.39
2018-07-25T05:31:17.700Z,61.63
2018-07-25T05:33:46.580Z,60.38
2018-07-25T05:36:15.345Z,60.96
2018-07-25T05:38:44.068Z,60.82
2018-07-25T05:41:13.297Z,60.69
2018-07-25T05:43:41.905Z,60.51
2018-07-25T05:46:10.690Z,59.68
2018-07-25T05:48:39.295Z,59.32
2018-07-25T05:51:08.012Z,60.18
2018-07-25T05:53:36.696Z,60.46
2018-07-25T05:56:06.467Z,59.16
2018-07-25T05:58:35.147Z,58.81
2018-07-25T06:01:03.976Z,58.76
2018-07-25T06:03:32.681Z,57.14
2018-07-25T06:06:01.389Z,56.94
2018-07-25T06:08:30.148Z,56.42
2018-07-25T06:11:00.277Z,57.11
2018-07-25T06:13:28.951Z,57.37
2018-07-25T06:15:58.660Z,57.18
2018-07-25T06:18:28.924Z,56.46
2018-07-25T06:20:58.211Z,55.78
2018-07-25T06:23:27.278Z,55.32
2018-07-25T06:25:56.991Z,54.63
2018-07-25T06:28:25.739Z,53.94
2018-07-25T06:30:54.563Z,53.95
2018-07-25T06:33:23.953Z,54.02
2018-07-25T06:35:53.163Z,53.46
2018-07-25T06:38:23.381Z,51.97
2018-07-25T06:40:52.550Z,52.35
2018-07-25T06:43:23.130Z,52.08
2018-07-25T06:45:52.636Z,50.70
2018-07-25T06:48:22.184Z,49.25
2018-07-25T06:50:51.827Z,47.82
2018-07-25T06:53:22.545Z,47.13
2018-07-25T06:55:52.712Z,46.33
2018-07-25T06:58:21.931Z,45.51
2018-07-25T07:00:51.034Z,44.61
2018-07-25T07:03:20.604Z,44.12
2018-07-25T07:05:50.084Z,43.47
2018-07-25T07:08:19.700Z,43.90
2018-07-25T07:10:49.590Z,42.43
2018-07-25T07:13:19.626Z,41.96
2018-07-25T07:15:48.829Z,41.36
2018-07-25T07:18:18.125Z,40.53
2018-07-25T07:20:47.572Z,39.03
2018-07-25T07:23:16.284Z,37.68
2018-07-25T07:25:45.010Z,35.82
2018-07-25T07:28:13.996Z,36.66
2018-07-25T07:30:42.944Z,35.21
2018-07-25T07:33:11.647Z,35.35
2018-07-25T07:35:40.336Z,35.57
2018-07-25T07:38:09.236Z,35.93
2018-07-25T07:40:38.116Z,35.02
2018-07-25T07:43:06.760Z,34.73
2018-07-25T07:45:35.485Z,33.84
2018-07-25T07:48:04.196Z,33.85
2018-07-25T07:50:32.948Z,33.37
2018-07-25T07:53:02.068Z,31.87
2018-07-25T07:55:30.767Z,31.10
2018-07-25T07:57:59.684Z,29.77
2018-07-25T08:00:28.483Z,29.34
2018-07-25T08:02:57.137Z,28.57
2018-07-25T08:05:25.752Z,25.62
2018-07-25T08:07:54.488Z,24.83
2018-07-25T08:10:23.127Z,23.68
2018-07-25T08:12:52.321Z,22.89
2018-07-25T08:15:21.367Z,24.44
2018-07-25T08:17:50.035Z,22.69
2018-07-25T08:20:18.717Z,21.85
2018-07-25T08:22:47.973Z,22.48
2018-07-25T08:25:16.807Z,23.12
2018-07-25T08:27:45.360Z,23.25
2018-07-25T08:30:14.352Z,21.24
2018-07-25T08:32:42.931Z,21.33
2018-07-25T08:35:11.783Z,20.10
2018-07-25T08:37:40.695Z,20.91
2018-07-25T08:40:09.308Z,21.07
2018-07-25T08:42:38.103Z,20.28
2018-07-25T08:45:07.959Z,21.16
2018-07-25T08:47:36.589Z,20.19
2018-07-25T08:50:08.114Z,19.91
2018-07-25T08:52:37.173Z,19.92
2018-07-25T08:55:06.255Z,19.25
2018-07-25T08:57:35.145Z,19.69
2018-07-25T09:00:04.166Z,18.37
2018-07-25T09:02:33.177Z,17.89
2018-07-25T09:05:02.052Z,16.45
2018-07-25T09:07:31.252Z,17.15
2018-07-25T09:10:01.409Z,15.59
2018-07-25T09:12:30.079Z,15.73
2018-07-25T09:14:58.707Z,17.72
2018-07-25T09:17:27.413Z,15.42
2018-07-25T09:19:56.152Z,15.42
2018-07-25T09:22:24.747Z,15.28
2018-07-25T09:24:53.579Z,15.54
2018-07-25T09:27:22.211Z,14.61
2018-07-25T09:29:51.169Z,13.76
2018-07-25T09:32:20.127Z,14.23
2018-07-25T09:34:48.784Z,14.53
2018-07-25T09:37:17.349Z,14.14
2018-07-25T09:39:46.204Z,14.98
2018-07-25T09:42:14.974Z,15.08
2018-07-25T09:44:43.896Z,14.80
2018-07-25T09:47:12.800Z,13.83
2018-07-25T09:49:41.894Z,14.81
2018-07-25T09:52:10.615Z,14.20
2018-07-25T09:54:39.324Z,13.31
2018-07-25T09:57:08.095Z,12.74
2018-07-25T09:59:36.903Z,12.80
2018-07-25T10:02:05.604Z,13.89
2018-07-25T10:04:34.304Z,13.58
2018-07-25T10:07:03.112Z,14.00
2018-07-25T10:09:31.865Z,14.41
2018-07-25T10:12:00.512Z,14.30
2018-07-25T10:14:29.100Z,13.42
2018-07-25T10:16:57.882Z,12.91
2018-07-25T10:19:26.469Z,11.36
2018-07-25T10:21:55.106Z,11.43
2018-07-25T10:24:23.897Z,11.70
2018-07-25T10:26:52.586Z,11.84
2018-07-25T10:29:21.338Z,11.85
2018-07-25T10:31:50.447Z,11.35
2018-07-25T10:34:19.080Z,11.35
2018-07-25T10:36:47.636Z,11.90
2018-07-25T10:39:16.438Z,12.76
2018-07-25T10:41:45.045Z,13.17
2018-07-25T10:44:13.975Z,14.49
2018-07-25T10:46:43.512Z,12.55
2018-07-25T10:49:12.120Z,12.17
2018-07-25T10:51:40.812Z,11.81
2018-07-25T10:54:09.555Z,10.74
2018-07-25T10:56:38.412Z,11.16
2018-07-25T10:59:07.187Z,10.83
2018-07-25T11:01:36.250Z,10.72
2018-07-25T11:04:05.162Z,10.40
2018-07-25T11:06:34.064Z,9.45
2018-07-25T11:09:03.091Z,9.76
2018-07-25T11:11:31.727Z,9.75
2018-07-25T11:14:01.178Z,9.77
2018-07-25T11:16:30.183Z,11.08
2018-07-25T11:18:59.013Z,10.89
2018-07-25T11:21:27.662Z,9.72
2018-07-25T11:23:56.543Z,10.36
2018-07-25T11:26:25.231Z,8.57
2018-07-25T11:28:53.896Z,8.46
2018-07-25T11:31:22.884Z,8.69
2018-07-25T11:33:51.545Z,7.13
2018-07-25T11:36:20.222Z,7.92
2018-07-25T11:38:49.169Z,9.48
2018-07-25T11:41:17.980Z,8.82
2018-07-25T11:43:46.604Z,7.27
2018-07-25T11:46:15.425Z,9.24
2018-07-25T11:48:44.064Z,9.18
2018-07-25T11:51:12.818Z,8.81
2018-07-25T11:53:41.473Z,8.08
2018-07-25T11:56:10.373Z,8.32
2018-07-25T11:58:39.025Z,8.20
2018-07-25T12:01:08.073Z,8.02
2018-07-25T12:03:36.754Z,7.97
2018-07-25T12:06:05.337Z,9.50
2018-07-25T12:08:34.147Z,8.12
2018-07-25T12:11:02.752Z,7.47
2018-07-25T12:13:31.336Z,8.51
2018-07-25T12:16:00.283Z,7.77
2018-07-25T12:18:28.958Z,6.78
2018-07-25T12:20:57.596Z,6.71
2018-07-25T12:23:26.367Z,7.89
2018-07-25T12:25:55.068Z,7.27
2018-07-25T12:28:23.650Z,7.43
2018-07-25T12:30:53.507Z,8.27
2018-07-25T12:33:22.092Z,7.24
2018-07-25T12:35:50.900Z,8.31
2018-07-25T12:38:20.320Z,6.94
2018-07-25T12:40:49.030Z,7.80
2018-07-25T12:43:17.744Z,6.63
2018-07-25T12:45:46.648Z,6.46
2018-07-25T12:48:15.303Z,8.09
2018-07-25T12:50:43.897Z,7.64
2018-07-25T12:53:12.853Z,7.85
2018-07-25T12:55:41.555Z,7.20
2018-07-25T12:58:10.305Z,9.45
2018-07-25T13:00:39.093Z,8.42
2018-07-25T13:03:08.336Z,6.98
2018-07-25T13:05:37.144Z,7.99
2018-07-25T13:08:06.467Z,8.90
2018-07-25T13:10:35.483Z,8.26
2018-07-25T13:13:04.108Z,8.21
2018-07-25T13:15:32.687Z,9.56
2018-07-25T13:18:01.380Z,10.83
2018-07-25T13:20:30.048Z,12.00
2018-07-25T13:22:58.886Z,10.76
2018-07-25T13:25:27.523Z,9.95
2018-07-25T13:27:56.116Z,11.99
2018-07-25T13:30:24.835Z,12.21
2018-07-25T13:32:53.510Z,11.38
2018-07-25T13:35:22.188Z,9.38
2018-07-25T13:37:51.017Z,8.99
2018-07-25T13:40:19.735Z,9.04
2018-07-25T13:42:48.471Z,9.64
2018-07-25T13:45:17.645Z,10.35
2018-07-25T13:47:46.309Z,10.25
2018-07-25T13:50:15.161Z,10.20
2018-07-25T13:52:44.339Z,8.72
2018-07-25T13:55:13.053Z,9.62
2018-07-25T13:57:41.730Z,9.83
2018-07-25T14:00:12.133Z,8.51
2018-07-25T14:02:40.908Z,8.79
2018-07-25T14:05:09.988Z,9.75
2018-07-25T14:07:38.925Z,9.13
2018-07-25T14:10:07.589Z,7.92
2018-07-25T14:12:36.375Z,8.67
2018-07-25T14:15:05.350Z,9.50
2018-07-25T14:17:34.079Z,9.96
2018-07-25T14:20:02.917Z,10.43
2018-07-25T14:22:31.952Z,10.67
2018-07-25T14:25:00.800Z,9.69
2018-07-25T14:27:29.472Z,9.29
2018-07-25T14:29:58.632Z,9.97
2018-07-25T14:32:27.308Z,9.21
2018-07-25T14:34:55.956Z,10.91
2018-07-25T14:37:24.734Z,10.06
2018-07-25T14:39:53.474Z,10.76
2018-07-25T14:42:22.020Z,11.64
2018-07-25T14:44:50.758Z,13.03
2018-07-25T14:47:19.590Z,15.17
2018-07-25T14:49:48.159Z,17.22
2018-07-25T14:52:16.908Z,18.48
2018-07-25T14:54:45.439Z,18.73
2018-07-25T14:57:14.285Z,18.69
2018-07-25T14:59:43.060Z,19.64
2018-07-25T15:02:11.819Z,19.77
2018-07-25T15:04:40.689Z,20.35
2018-07-25T15:07:09.408Z,20.47
2018-07-25T15:09:38.076Z,20.21
2018-07-25T15:12:07.055Z,19.72
2018-07-25T15:14:35.796Z,20.30
2018-07-25T15:17:04.471Z,19.87
2018-07-25T15:19:33.211Z,20.41
2018-07-25T15:22:01.973Z,21.05
2018-07-25T15:24:30.657Z,21.57
2018-07-25T15:27:00.188Z,21.46
2018-07-25T15:29:29.260Z,21.99
2018-07-25T15:31:58.257Z,21.02
2018-07-25T15:34:27.123Z,21.42
2018-07-25T15:36:56.109Z,21.95
2018-07-25T15:39:25.898Z,20.60
2018-07-25T15:41:56.100Z,20.14
2018-07-25T15:44:25.986Z,20.74
2018-07-25T15:46:55.018Z,20.99
2018-07-25T15:49:25.437Z,21.64
2018-07-25T15:51:54.121Z,20.33
2018-07-25T15:54:22.963Z,21.84
2018-07-25T15:56:52.160Z,21.84
2018-07-25T15:59:20.951Z,21.95
2018-07-25T16:01:51.414Z,21.40
2018-07-25T16:04:20.174Z,21.42
2018-07-25T16:06:48.920Z,22.67
2018-07-25T16:09:18.047Z,23.35
2018-07-25T16:11:48.451Z,23.45
2018-07-25T16:14:17.356Z,22.70
2018-07-25T16:16:46.288Z,22.87
2018-07-25T16:19:15.043Z,22.64
2018-07-25T16:21:44.049Z,22.56
2018-07-25T16:24:13.118Z,22.93
2018-07-25T16:26:41.927Z,23.28
2018-07-25T16:29:10.821Z,23.18
2018-07-25T16:31:39.570Z,22.46
2018-07-25T16:34:08.268Z,24.23
2018-07-25T16:36:37.040Z,23.39
2018-07-25T16:39:09.180Z,24.03
2018-07-25T16:41:38.419Z,23.95
2018-07-25T16:44:07.217Z,23.92
2018-07-25T16:46:36.012Z,23.01
2018-07-25T16:49:05.204Z,23.33
2018-07-25T16:51:34.236Z,22.34
2018-07-25T16:54:03.589Z,22.58
2018-07-25T16:56:32.287Z,22.49
2018-07-25T16:59:01.417Z,23.36
2018-07-25T17:01:30.131Z,23.74
2018-07-25T17:04:00.100Z,22.47
2018-07-25T17:06:30.023Z,22.82
2018-07-25T17:08:59.283Z,23.85
2018-07-25T17:11:28.240Z,23.56
2018-07-25T17:13:57.249Z,22.78
2018-07-25T17:16:26.088Z,22.64
2018-07-25T17:18:54.734Z,22.96
2018-07-25T17:21:23.859Z,22.94
2018-07-25T17:23:53.131Z,23.90
2018-07-25T17:26:22.027Z,23.31
2018-07-25T17:28:50.926Z,22.87
2018-07-25T17:31:20.376Z,23.21
2018-07-25T17:33:49.112Z,23.31
2018-07-25T17:36:18.487Z,24.06
2018-07-25T17:38:47.633Z,24.50
2018-07-25T17:41:17.173Z,24.42
2018-07-25T17:43:46.172Z,23.79
2018-07-25T17:46:14.997Z,23.88
2018-07-25T17:48:43.941Z,25.33
2018-07-25T17:51:12.807Z,24.42
2018-07-25T17:53:41.809Z,24.93
2018-07-25T17:56:10.552Z,24.88
2018-07-25T17:58:39.341Z,24.81
2018-07-25T18:01:08.385Z,25.48
2018-07-25T18:03:37.144Z,25.97
2018-07-25T18:06:06.168Z,26.09
2018-07-25T18:08:35.463Z,25.51
2018-07-25T18:11:04.432Z,25.79
2018-07-25T18:13:38.466Z,26.32
2018-07-25T18:16:07.329Z,26.36
2018-07-25T18:18:36.126Z,26.84
2018-07-25T18:21:05.167Z,27.32
2018-07-25T18:23:33.988Z,27.40
2018-07-25T18:26:03.230Z,26.99
2018-07-25T18:28:32.347Z,26.48
2018-07-25T18:31:01.216Z,27.43
2018-07-25T18:33:30.481Z,27.60
2018-07-25T18:35:59.384Z,27.83
2018-07-25T18:38:28.172Z,27.33
2018-07-25T18:40:56.846Z,27.87
2018-07-25T18:43:26.685Z,27.63
2018-07-25T18:45:56.629Z,28.00
2018-07-25T18:48:26.514Z,27.09
2018-07-25T18:50:56.608Z,27.84
2018-07-25T18:53:26.599Z,28.00
2018-07-25T18:55:55.474Z,27.70
2018-07-25T18:58:24.975Z,27.80
2018-07-25T19:00:54.028Z,28.24
2018-07-25T19:03:22.909Z,28.80
2018-07-25T19:05:51.637Z,28.82
2018-07-25T19:08:20.692Z,28.73
2018-07-25T19:10:49.568Z,29.64
2018-07-25T19:13:23.599Z,29.28
2018-07-25T19:15:52.412Z,29.61
2018-07-25T19:18:21.565Z,30.22
2018-07-25T19:20:50.600Z,29.40
2018-07-25T19:23:19.373Z,29.64
2018-07-25T19:25:48.990Z,31.01
2018-07-25T19:28:19.502Z,32.05
2018-07-25T19:30:48.372Z,32.19
2018-07-25T19:33:17.163Z,31.59
2018-07-25T19:35:46.164Z,31.82
2018-07-25T19:38:15.352Z,32.02
2018-07-25T19:40:44.219Z,33.21
2018-07-25T19:43:13.278Z,33.58
2018-07-25T19:45:42.971Z,32.90
2018-07-25T19:48:11.748Z,33.53
2018-07-25T19:50:41.149Z,33.77
2018-07-25T19:53:09.795Z,34.33
2018-07-25T19:55:38.615Z,34.89
2018-07-25T19:58:07.372Z,34.91
2018-07-25T20:00:36.038Z,34.32
2018-07-25T20:03:05.102Z,35.21
2018-07-25T20:05:33.825Z,35.27
2018-07-25T20:08:03.174Z,34.77
2018-07-25T20:10:32.189Z,34.92
2018-07-25T20:13:00.912Z,35.36
2018-07-25T20:15:35.323Z,35.55
2018-07-25T20:18:04.539Z,35.77
2018-07-25T20:20:33.485Z,37.07
2018-07-25T20:23:02.259Z,37.48
2018-07-25T20:25:31.297Z,37.76
2018-07-25T20:27:59.918Z,38.57
2018-07-25T20:30:28.716Z,38.63
2018-07-25T20:32:57.881Z,39.05
2018-07-25T20:35:26.591Z,38.79
2018-07-25T20:37:55.770Z,37.26
2018-07-25T20:40:24.806Z,36.92
2018-07-25T20:42:53.659Z,36.63
2018-07-25T20:45:22.555Z,36.33
2018-07-25T20:47:51.616Z,36.34
2018-07-25T20:50:20.481Z,36.94
2018-07-25T20:52:49.801Z,37.27
2018-07-25T20:55:18.585Z,37.14
2018-07-25T20:57:47.367Z,37.53
2018-07-25T21:00:16.480Z,38.54
2018-07-25T21:02:45.349Z,38.37
2018-07-25T21:05:14.075Z,39.25
2018-07-25T21:07:42.895Z,39.53
2018-07-25T21:10:11.827Z,39.42
2018-07-25T21:12:40.518Z,40.08
2018-07-25T21:15:09.131Z,41.08
2018-07-25T21:17:38.807Z,42.08
2018-07-25T21:20:07.972Z,42.37
2018-07-25T21:22:37.097Z,42.99
2018-07-25T21:25:06.318Z,43.97
2018-07-25T21:27:35.054Z,43.50
2018-07-25T21:30:03.977Z,43.26
2018-07-25T21:32:33.325Z,44.62
2018-07-25T21:35:02.442Z,44.35
2018-07-25T21:37:31.410Z,45.08
2018-07-25T21:40:00.125Z,45.29
2018-07-25T21:42:28.929Z,44.47
2018-07-25T21:44:57.663Z,45.62
2018-07-25T21:47:26.817Z,45.84
2018-07-25T21:49:55.707Z,46.22
2018-07-25T21:52:24.400Z,46.36
2018-07-25T21:54:53.190Z,46.65
2018-07-25T21:57:22.087Z,45.79
2018-07-25T21:59:50.818Z,45.94
2018-07-25T22:02:20.384Z,46.89
2018-07-25T22:04:49.120Z,46.52
2018-07-25T22:07:17.745Z,45.29
2018-07-25T22:09:46.788Z,45.06
2018-07-25T22:12:15.412Z,45.47
2018-07-25T22:14:44.029Z,45.93
2018-07-25T22:17:13.279Z,46.04
2018-07-25T22:19:41.914Z,45.79
2018-07-25T22:22:10.613Z,46.03
2018-07-25T22:24:39.275Z,45.73
2018-07-25T22:27:08.396Z,45.95
2018-07-25T22:29:37.061Z,45.37
2018-07-25T22:32:05.996Z,46.13
2018-07-25T22:34:34.643Z,45.92
2018-07-25T22:37:03.248Z,46.41
2018-07-25T22:39:32.475Z,46.58
2018-07-25T22:42:01.119Z,46.69
2018-07-25T22:44:30.900Z,46.88
2018-07-25T22:46:59.527Z,47.53
2018-07-25T22:49:28.197Z,47.85
2018-07-25T22:51:57.040Z,47.63
2018-07-25T22:54:26.072Z,48.08
2018-07-25T22:56:54.664Z,48.41
2018-07-25T22:59:23.344Z,48.96
2018-07-25T23:01:53.028Z,49.50
2018-07-25T23:04:21.750Z,50.53
2018-07-25T23:06:50.425Z,49.77
2018-07-25T23:09:19.568Z,50.22
2018-07-25T23:11:48.268Z,51.56
2018-07-25T23:14:17.062Z,51.32
2018-07-25T23:16:45.932Z,51.15
2018-07-25T23:19:14.796Z,51.40
2018-07-25T23:21:43.707Z,50.82
2018-07-25T23:24:12.504Z,50.59
2018-07-25T23:26:41.272Z,50.26
2018-07-25T23:29:10.096Z,51.09
2018-07-25T23:31:39.307Z,50.20
2018-07-25T23:34:08.243Z,50.98
2018-07-25T23:36:37.136Z,50.51
2018-07-25T23:39:09.628Z,50.57
2018-07-25T23:41:38.529Z,50.53
2018-07-25T23:44:07.389Z,50.70
2018-07-25T23:46:36.507Z,50.55
2018-07-25T23:49:05.371Z,50.75
2018-07-25T23:51:34.766Z,51.15
2018-07-25T23:54:04.720Z,52.54
2018-07-25T23:56:33.424Z,52.55
2018-07-25T23:59:02.053Z,52.91
